Ponza — 9HA2174 — position and weather

sailwx.info

Track history (hours):
 
Tides and Currents Weather Stations Pressure Air Temp Water Temp Dewpoint Dewpoint Depression Visibility Wind Speed Wind Dir Waves Ship Positions

Ponza

Last reported at 2018-Feb-18 21:58 UTC. Time now 2018-Feb-20 21:55 UTC.
Position N 37°39' E 025°42'.

Length 99 m.

Type: Cargo ship. MMSI: 248097000.

Date/timePositionNaut miles runAvg speedWind from/ knotsBaromVisibWave heightAir tempDewpointWater temp
2018-Feb-18 21:58N 37°39' E 025°42'5 8.6
2018-Feb-18 21:20N 37°35' E 025°39'3 8.5
2018-Feb-18 20:59N 37°32' E 025°37'4 9.0
2018-Feb-18 20:30N 37°29' E 025°34'5 9.0
2018-Feb-18 20:00N 37°25' E 025°30'4 8.7
2018-Feb-18 19:30N 37°23' E 025°26'15 9.0
2018-Feb-18 17:53N 37°17' E 025°09'4 9.4
2018-Feb-18 17:30N 37°15' E 025°05'9 9.6
2018-Feb-18 16:31N 37°11' E 024°54'0 9.3
2018-Feb-18 16:30N 37°11' E 024°54'  
2018-Feb-16 11:45N 37°56' E 015°39'5 9.8
2018-Feb-16 11:17N 37°60' E 015°35'3 9.5
2018-Feb-16 10:59N 38°02' E 015°34'510.4
2018-Feb-16 10:29N 38°07' E 015°35'510.8
2018-Feb-16 10:00N 38°12' E 015°36'610.4
2018-Feb-16 09:25N 38°17' E 015°41'410.2
2018-Feb-16 09:01N 38°21' E 015°39'5 9.9
2018-Feb-16 08:30N 38°26' E 015°37'  
2018-Feb-13 01:12N 43°22' E 009°20'2 9.1
2018-Feb-13 00:57N 43°24' E 009°19'4 9.5
2018-Feb-13 00:30N 43°28' E 009°15'510.6
2018-Feb-13 00:00N 43°32' E 009°11'5 9.8
2018-Feb-12 23:30N 43°36' E 009°07'5 9.9
2018-Feb-12 23:00N 43°40' E 009°03'1010.0
2018-Feb-12 22:03N 43°48' E 008°56'110.2
2018-Feb-12 21:58N 43°49' E 008°55'5 9.9
2018-Feb-12 21:30N 43°52' E 008°52'5 9.8
2018-Feb-12 21:00N 43°57' E 008°48'510.2
2018-Feb-12 20:31N 44°01' E 008°45'710.4
2018-Feb-12 19:49N 44°07' E 008°40'310.5
2018-Feb-12 19:30N 44°10' E 008°38'510.5
2018-Feb-12 19:00N 44°15' E 008°34'510.0
2018-Feb-12 18:30N 44°19' E 008°30'1 1.4
2018-Feb-12 18:00N 44°19' E 008°30'0 0.0
2018-Feb-12 17:30N 44°19' E 008°30'0 0.0
2018-Feb-12 17:00N 44°19' E 008°30'0 0.0
2018-Feb-12 16:30N 44°19' E 008°30'0 0.0
2018-Feb-12 14:00N 44°19' E 008°30'0 0.0
2018-Feb-12 13:30N 44°19' E 008°30'0 0.0
2018-Feb-12 13:00N 44°19' E 008°30'0 0.0
2018-Feb-12 12:24N 44°19' E 008°30'0 0.0
2018-Feb-12 12:00N 44°19' E 008°30'0 0.0
2018-Feb-12 11:30N 44°19' E 008°30'0 0.0
2018-Feb-12 10:48N 44°19' E 008°30'0 0.0
2018-Feb-12 10:30N 44°19' E 008°30'0 0.0
2018-Feb-12 10:00N 44°19' E 008°30'0 0.0
2018-Feb-12 09:30N 44°19' E 008°30'0 0.0
2018-Feb-12 09:00N 44°19' E 008°30'0 0.0
2018-Feb-12 08:30N 44°19' E 008°30'0 0.0
2018-Feb-12 07:54N 44°19' E 008°30'0 0.0
2018-Feb-12 07:30N 44°19' E 008°30'0 0.0
2018-Feb-12 07:00N 44°19' E 008°30'1 1.7
2018-Feb-12 06:30N 44°19' E 008°31'1 1.2
2018-Feb-12 05:55N 44°18' E 008°30'0 0.0
2018-Feb-12 05:25N 44°18' E 008°30'0 0.0
2018-Feb-12 04:55N 44°18' E 008°30'0 0.0
2018-Feb-12 04:25N 44°18' E 008°30'0 0.1
2018-Feb-12 03:55N 44°18' E 008°30'0 0.1
2018-Feb-12 03:25N 44°18' E 008°30'0 0.0
2018-Feb-12 02:55N 44°18' E 008°30'0 0.0
2018-Feb-12 02:25N 44°18' E 008°30'0 0.0
2018-Feb-12 01:55N 44°18' E 008°30'0 0.0
2018-Feb-12 01:25N 44°18' E 008°30'0 0.1
2018-Feb-12 00:55N 44°18' E 008°30'0 0.0
2018-Feb-12 00:28N 44°18' E 008°30'0 0.0
2018-Feb-11 23:55N 44°18' E 008°30'0 0.0
2018-Feb-11 23:28N 44°18' E 008°30'0 0.0
2018-Feb-11 22:55N 44°18' E 008°30'0 0.2
2018-Feb-11 22:25N 44°18' E 008°30'0 0.1
2018-Feb-11 21:55N 44°18' E 008°30'0 0.0
2018-Feb-11 21:25N 44°18' E 008°30'0 0.0
2018-Feb-11 20:55N 44°18' E 008°30'0 0.0
2018-Feb-11 20:25N 44°18' E 008°30'0 0.0
2018-Feb-11 19:55N 44°18' E 008°30'0 0.0
2018-Feb-11 19:25N 44°18' E 008°30'0 0.0
2018-Feb-11 18:55N 44°18' E 008°30'0 0.0
2018-Feb-11 18:25N 44°18' E 008°30'0 0.0
2018-Feb-11 17:55N 44°18' E 008°30'0 0.0
2018-Feb-11 17:25N 44°18' E 008°30'0 0.0
2018-Feb-11 16:55N 44°18' E 008°30'0 0.0
2018-Feb-11 16:25N 44°18' E 008°30'0 0.1
2018-Feb-11 15:55N 44°18' E 008°30'0 0.0
2018-Feb-11 15:19N 44°18' E 008°30'0 0.0
2018-Feb-11 14:49N 44°18' E 008°30'0 0.0
2018-Feb-11 14:25N 44°18' E 008°30'0 0.0
2018-Feb-11 13:55N 44°18' E 008°30'0 0.0
2018-Feb-11 13:25N 44°18' E 008°30'0 0.0
2018-Feb-11 12:55N 44°18' E 008°30'0 0.0
2018-Feb-11 12:25N 44°18' E 008°30'0 0.0
2018-Feb-11 11:55N 44°18' E 008°30'0 0.0
2018-Feb-11 11:25N 44°18' E 008°30'0 0.0
2018-Feb-11 10:55N 44°18' E 008°30'0 0.0
2018-Feb-11 10:25N 44°18' E 008°30'0 0.1
2018-Feb-11 09:55N 44°18' E 008°30'0 0.0
2018-Feb-11 09:25N 44°18' E 008°30'0 0.0
2018-Feb-11 08:55N 44°18' E 008°30'0 0.0
2018-Feb-11 08:25N 44°18' E 008°30'0 0.0
2018-Feb-11 07:55N 44°18' E 008°30'0 0.0
2018-Feb-11 07:25N 44°18' E 008°30'0 0.0
2018-Feb-11 06:49N 44°18' E 008°30'0 0.0
2018-Feb-11 06:25N 44°18' E 008°30'0 0.0
2018-Feb-11 05:55N 44°18' E 008°30'0 0.0
2018-Feb-11 05:25N 44°18' E 008°30'0 0.0
2018-Feb-11 04:55N 44°18' E 008°30'0 0.0
2018-Feb-11 04:25N 44°18' E 008°30'0 0.0
2018-Feb-11 03:55N 44°18' E 008°30'0 0.0
2018-Feb-11 03:19N 44°18' E 008°30'0 0.0
2018-Feb-11 02:55N 44°18' E 008°30'0 0.0
2018-Feb-11 02:25N 44°18' E 008°30'0 0.0
2018-Feb-11 01:55N 44°18' E 008°30'0 0.0
2018-Feb-11 01:25N 44°18' E 008°30'0 0.0
2018-Feb-11 00:55N 44°18' E 008°30'0 0.0
2018-Feb-11 00:25N 44°18' E 008°30'0 0.0
2018-Feb-10 23:58N 44°18' E 008°30'0 0.0
2018-Feb-10 23:25N 44°18' E 008°30'0 0.0
2018-Feb-10 22:55N 44°18' E 008°30'0 0.0
2018-Feb-10 22:25N 44°18' E 008°30'0 0.0
2018-Feb-10 21:55N 44°18' E 008°30'0 0.0
2018-Feb-10 21:25N 44°18' E 008°30'0 0.2
2018-Feb-10 21:00N 44°18' E 008°30'3 5.4
2018-Feb-10 20:30N 44°15' E 008°31'5 9.4
2018-Feb-10 20:00N 44°11' E 008°29'510.1
2018-Feb-10 19:28N 44°06' E 008°25'157 8.8
2018-Feb-10 01:38N 43°16' E 004°60'111.2
2018-Feb-10 01:31N 43°17' E 004°59'611.2
2018-Feb-10 01:00N 43°23' E 004°57'4 7.9
2018-Feb-10 00:30N 43°26' E 004°54'0 0.1
2018-Feb-09 23:59N 43°26' E 004°54'0 0.0
2018-Feb-09 23:29N 43°26' E 004°54'0 0.0
2018-Feb-09 22:59N 43°26' E 004°54'0 0.0
2018-Feb-09 22:41N 43°26' E 004°54'  
Track history (hours):
 
Tides and Currents Weather Stations Pressure Air Temp Water Temp Dewpoint Dewpoint Depression Visibility Wind Speed Wind Dir Waves Ship Positions

Ponza

Last reported at 2018-Feb-18 21:58 UTC. Time now 2018-Feb-20 21:55 UTC.
Position N 37°39' E 025°42'.

Length 99 m.

Type: Cargo ship. MMSI: 248097000.

Date/timePositionNaut miles runAvg speedWind from/ knotsBaromVisibWave heightAir tempDewpointWater temp
2018-Feb-18 21:58N 37°39' E 025°42'5 8.6
2018-Feb-18 21:20N 37°35' E 025°39'3 8.5
2018-Feb-18 20:59N 37°32' E 025°37'4 9.0
2018-Feb-18 20:30N 37°29' E 025°34'5 9.0
2018-Feb-18 20:00N 37°25' E 025°30'4 8.7
2018-Feb-18 19:30N 37°23' E 025°26'15 9.0
2018-Feb-18 17:53N 37°17' E 025°09'4 9.4
2018-Feb-18 17:30N 37°15' E 025°05'9 9.6
2018-Feb-18 16:31N 37°11' E 024°54'0 9.3
2018-Feb-18 16:30N 37°11' E 024°54'  
2018-Feb-16 11:45N 37°56' E 015°39'5 9.8
2018-Feb-16 11:17N 37°60' E 015°35'3 9.5
2018-Feb-16 10:59N 38°02' E 015°34'510.4
2018-Feb-16 10:29N 38°07' E 015°35'510.8
2018-Feb-16 10:00N 38°12' E 015°36'610.4
2018-Feb-16 09:25N 38°17' E 015°41'410.2
2018-Feb-16 09:01N 38°21' E 015°39'5 9.9
2018-Feb-16 08:30N 38°26' E 015°37'  
2018-Feb-13 01:12N 43°22' E 009°20'2 9.1
2018-Feb-13 00:57N 43°24' E 009°19'4 9.5
2018-Feb-13 00:30N 43°28' E 009°15'510.6
2018-Feb-13 00:00N 43°32' E 009°11'5 9.8
2018-Feb-12 23:30N 43°36' E 009°07'5 9.9
2018-Feb-12 23:00N 43°40' E 009°03'1010.0
2018-Feb-12 22:03N 43°48' E 008°56'110.2
2018-Feb-12 21:58N 43°49' E 008°55'5 9.9
2018-Feb-12 21:30N 43°52' E 008°52'5 9.8
2018-Feb-12 21:00N 43°57' E 008°48'510.2
2018-Feb-12 20:31N 44°01' E 008°45'710.4
2018-Feb-12 19:49N 44°07' E 008°40'310.5
2018-Feb-12 19:30N 44°10' E 008°38'510.5
2018-Feb-12 19:00N 44°15' E 008°34'510.0
2018-Feb-12 18:30N 44°19' E 008°30'1 1.4
2018-Feb-12 18:00N 44°19' E 008°30'0 0.0
2018-Feb-12 17:30N 44°19' E 008°30'0 0.0
2018-Feb-12 17:00N 44°19' E 008°30'0 0.0
2018-Feb-12 16:30N 44°19' E 008°30'0 0.0
2018-Feb-12 14:00N 44°19' E 008°30'0 0.0
2018-Feb-12 13:30N 44°19' E 008°30'0 0.0
2018-Feb-12 13:00N 44°19' E 008°30'0 0.0
2018-Feb-12 12:24N 44°19' E 008°30'0 0.0
2018-Feb-12 12:00N 44°19' E 008°30'0 0.0
2018-Feb-12 11:30N 44°19' E 008°30'0 0.0
2018-Feb-12 10:48N 44°19' E 008°30'0 0.0
2018-Feb-12 10:30N 44°19' E 008°30'0 0.0
2018-Feb-12 10:00N 44°19' E 008°30'0 0.0
2018-Feb-12 09:30N 44°19' E 008°30'0 0.0
2018-Feb-12 09:00N 44°19' E 008°30'0 0.0
2018-Feb-12 08:30N 44°19' E 008°30'0 0.0
2018-Feb-12 07:54N 44°19' E 008°30'0 0.0
2018-Feb-12 07:30N 44°19' E 008°30'0 0.0
2018-Feb-12 07:00N 44°19' E 008°30'1 1.7
2018-Feb-12 06:30N 44°19' E 008°31'1 1.2
2018-Feb-12 05:55N 44°18' E 008°30'0 0.0
2018-Feb-12 05:25N 44°18' E 008°30'0 0.0
2018-Feb-12 04:55N 44°18' E 008°30'0 0.0
2018-Feb-12 04:25N 44°18' E 008°30'0 0.1
2018-Feb-12 03:55N 44°18' E 008°30'0 0.1
2018-Feb-12 03:25N 44°18' E 008°30'0 0.0
2018-Feb-12 02:55N 44°18' E 008°30'0 0.0
2018-Feb-12 02:25N 44°18' E 008°30'0 0.0
2018-Feb-12 01:55N 44°18' E 008°30'0 0.0
2018-Feb-12 01:25N 44°18' E 008°30'0 0.1
2018-Feb-12 00:55N 44°18' E 008°30'0 0.0
2018-Feb-12 00:28N 44°18' E 008°30'0 0.0
2018-Feb-11 23:55N 44°18' E 008°30'0 0.0
2018-Feb-11 23:28N 44°18' E 008°30'0 0.0
2018-Feb-11 22:55N 44°18' E 008°30'0 0.2
2018-Feb-11 22:25N 44°18' E 008°30'0 0.1
2018-Feb-11 21:55N 44°18' E 008°30'0 0.0
2018-Feb-11 21:25N 44°18' E 008°30'0 0.0
2018-Feb-11 20:55N 44°18' E 008°30'0 0.0
2018-Feb-11 20:25N 44°18' E 008°30'0 0.0
2018-Feb-11 19:55N 44°18' E 008°30'0 0.0
2018-Feb-11 19:25N 44°18' E 008°30'0 0.0
2018-Feb-11 18:55N 44°18' E 008°30'0 0.0
2018-Feb-11 18:25N 44°18' E 008°30'0 0.0
2018-Feb-11 17:55N 44°18' E 008°30'0 0.0
2018-Feb-11 17:25N 44°18' E 008°30'0 0.0
2018-Feb-11 16:55N 44°18' E 008°30'0 0.0
2018-Feb-11 16:25N 44°18' E 008°30'0 0.1
2018-Feb-11 15:55N 44°18' E 008°30'0 0.0
2018-Feb-11 15:19N 44°18' E 008°30'0 0.0
2018-Feb-11 14:49N 44°18' E 008°30'0 0.0
2018-Feb-11 14:25N 44°18' E 008°30'0 0.0
2018-Feb-11 13:55N 44°18' E 008°30'0 0.0
2018-Feb-11 13:25N 44°18' E 008°30'0 0.0
2018-Feb-11 12:55N 44°18' E 008°30'0 0.0
2018-Feb-11 12:25N 44°18' E 008°30'0 0.0
2018-Feb-11 11:55N 44°18' E 008°30'0 0.0
2018-Feb-11 11:25N 44°18' E 008°30'0 0.0
2018-Feb-11 10:55N 44°18' E 008°30'0 0.0
2018-Feb-11 10:25N 44°18' E 008°30'0 0.1
2018-Feb-11 09:55N 44°18' E 008°30'0 0.0
2018-Feb-11 09:25N 44°18' E 008°30'0 0.0
2018-Feb-11 08:55N 44°18' E 008°30'0 0.0
2018-Feb-11 08:25N 44°18' E 008°30'0 0.0
2018-Feb-11 07:55N 44°18' E 008°30'0 0.0
2018-Feb-11 07:25N 44°18' E 008°30'0 0.0
2018-Feb-11 06:49N 44°18' E 008°30'0 0.0
2018-Feb-11 06:25N 44°18' E 008°30'0 0.0
2018-Feb-11 05:55N 44°18' E 008°30'0 0.0
2018-Feb-11 05:25N 44°18' E 008°30'0 0.0
2018-Feb-11 04:55N 44°18' E 008°30'0 0.0
2018-Feb-11 04:25N 44°18' E 008°30'0 0.0
2018-Feb-11 03:55N 44°18' E 008°30'0 0.0
2018-Feb-11 03:19N 44°18' E 008°30'0 0.0
2018-Feb-11 02:55N 44°18' E 008°30'0 0.0
2018-Feb-11 02:25N 44°18' E 008°30'0 0.0
2018-Feb-11 01:55N 44°18' E 008°30'0 0.0
2018-Feb-11 01:25N 44°18' E 008°30'0 0.0
2018-Feb-11 00:55N 44°18' E 008°30'0 0.0
2018-Feb-11 00:25N 44°18' E 008°30'0 0.0
2018-Feb-10 23:58N 44°18' E 008°30'0 0.0
2018-Feb-10 23:25N 44°18' E 008°30'0 0.0
2018-Feb-10 22:55N 44°18' E 008°30'0 0.0
2018-Feb-10 22:25N 44°18' E 008°30'0 0.0
2018-Feb-10 21:55N 44°18' E 008°30'0 0.0
2018-Feb-10 21:25N 44°18' E 008°30'0 0.2
2018-Feb-10 21:00N 44°18' E 008°30'3 5.4
2018-Feb-10 20:30N 44°15' E 008°31'5 9.4
2018-Feb-10 20:00N 44°11' E 008°29'510.1
2018-Feb-10 19:28N 44°06' E 008°25'157 8.8
2018-Feb-10 01:38N 43°16' E 004°60'111.2
2018-Feb-10 01:31N 43°17' E 004°59'611.2
2018-Feb-10 01:00N 43°23' E 004°57'4 7.9
2018-Feb-10 00:30N 43°26' E 004°54'0 0.1
2018-Feb-09 23:59N 43°26' E 004°54'0 0.0
2018-Feb-09 23:29N 43°26' E 004°54'0 0.0
2018-Feb-09 22:59N 43°26' E 004°54'0 0.0
2018-Feb-09 22:41N 43°26' E 004°54'  

Dump ship's entire track history